createdAt,value
2019-01-26T00:01:17.971Z,42.30
2019-01-26T00:03:45.658Z,41.27
2019-01-26T00:06:15.496Z,42.67
2019-01-26T00:08:43.194Z,43.00
2019-01-26T00:11:10.827Z,47.03
2019-01-26T00:13:38.526Z,46.17
2019-01-26T00:16:06.163Z,49.50
2019-01-26T00:18:35.037Z,51.87
2019-01-26T00:21:03.039Z,49.10
2019-01-26T00:23:30.666Z,50.23
2019-01-26T00:25:58.286Z,46.43
2019-01-26T00:28:25.951Z,46.83
2019-01-26T00:30:53.616Z,49.53
2019-01-26T00:33:22.384Z,50.53
2019-01-26T00:35:50.041Z,46.57
2019-01-26T00:38:18.067Z,50.80
2019-01-26T00:40:45.755Z,46.83
2019-01-26T00:43:13.412Z,45.23
2019-01-26T00:45:41.673Z,45.10
2019-01-26T00:48:09.323Z,46.67
2019-01-26T00:50:37.327Z,46.30
2019-01-26T00:53:04.977Z,43.73
2019-01-26T00:55:32.647Z,45.50
2019-01-26T00:58:00.284Z,47.17
2019-01-26T01:00:28.346Z,44.63
2019-01-26T01:02:56.029Z,44.97
2019-01-26T01:05:24.433Z,44.60
2019-01-26T01:07:52.510Z,45.97
2019-01-26T01:10:20.232Z,45.97
2019-01-26T01:12:48.218Z,47.57
2019-01-26T01:15:15.922Z,45.77
2019-01-26T01:17:43.632Z,45.90
2019-01-26T01:20:11.507Z,47.77
2019-01-26T01:22:39.150Z,45.53
2019-01-26T01:25:07.632Z,45.20
2019-01-26T01:27:35.374Z,45.20
2019-01-26T01:30:04.799Z,44.07
2019-01-26T01:32:32.473Z,45.37
2019-01-26T01:35:00.181Z,46.60
2019-01-26T01:37:28.114Z,47.00
2019-01-26T01:39:55.758Z,47.10
2019-01-26T01:42:23.701Z,46.37
2019-01-26T01:44:51.342Z,49.67
2019-01-26T01:47:19.023Z,45.50
2019-01-26T01:49:46.684Z,48.77
2019-01-26T01:52:14.292Z,49.80
2019-01-26T01:54:42.160Z,45.93
2019-01-26T01:57:10.483Z,43.03
2019-01-26T01:59:38.455Z,45.87
2019-01-26T02:02:06.448Z,45.27
2019-01-26T02:04:34.403Z,46.67
2019-01-26T02:07:02.091Z,47.27
2019-01-26T02:09:29.750Z,48.30
2019-01-26T02:11:57.694Z,49.63
2019-01-26T02:14:25.386Z,50.17
2019-01-26T02:16:53.040Z,50.73
2019-01-26T02:19:20.705Z,49.40
2019-01-26T02:21:49.245Z,47.03
2019-01-26T02:24:17.204Z,44.77
2019-01-26T02:26:44.852Z,52.80
2019-01-26T02:29:12.485Z,45.97
2019-01-26T02:31:40.827Z,44.97
2019-01-26T02:34:08.497Z,47.30
2019-01-26T02:36:36.583Z,44.67
2019-01-26T02:39:06.668Z,47.77
2019-01-26T02:41:34.347Z,51.27
2019-01-26T02:44:02.019Z,48.57
2019-01-26T02:46:29.679Z,48.33
2019-01-26T02:48:57.524Z,49.30
2019-01-26T02:51:25.244Z,48.07
2019-01-26T02:53:53.056Z,47.87
2019-01-26T02:56:21.083Z,45.20
2019-01-26T02:58:48.900Z,44.70
2019-01-26T03:01:16.962Z,46.40
2019-01-26T03:03:44.598Z,42.53
2019-01-26T03:06:12.278Z,43.83
2019-01-26T03:08:40.049Z,43.33
2019-01-26T03:11:07.982Z,47.57
2019-01-26T03:13:35.659Z,45.20
2019-01-26T03:16:04.713Z,45.30
2019-01-26T03:18:32.353Z,41.77
2019-01-26T03:20:59.978Z,43.90
2019-01-26T03:23:29.042Z,41.27
2019-01-26T03:25:56.698Z,43.80
2019-01-26T03:28:24.327Z,42.73
2019-01-26T03:30:52.003Z,41.80
2019-01-26T03:33:20.677Z,39.37
2019-01-26T03:35:48.315Z,38.07
2019-01-26T03:38:15.927Z,41.67
2019-01-26T03:40:43.611Z,37.23
2019-01-26T03:43:11.213Z,40.20
2019-01-26T03:45:38.841Z,38.17
2019-01-26T03:48:06.692Z,40.47
2019-01-26T03:50:34.324Z,38.97
2019-01-26T03:53:01.921Z,38.07
2019-01-26T03:55:29.894Z,42.43
2019-01-26T03:57:57.530Z,39.87
2019-01-26T04:00:26.049Z,39.37
2019-01-26T04:02:53.952Z,38.70
2019-01-26T04:05:21.838Z,43.83
2019-01-26T04:07:50.951Z,41.70
2019-01-26T04:10:18.683Z,41.27
2019-01-26T04:12:46.290Z,45.00
2019-01-26T04:15:15.801Z,43.43
2019-01-26T04:17:43.412Z,45.90
2019-01-26T04:20:16.456Z,49.20
2019-01-26T04:22:44.493Z,49.03
2019-01-26T04:25:12.486Z,56.77
2019-01-26T04:27:40.089Z,49.43
2019-01-26T04:30:10.606Z,55.67
2019-01-26T04:32:38.333Z,56.03
2019-01-26T04:35:06.619Z,57.87
2019-01-26T04:37:36.804Z,58.90
2019-01-26T04:40:06.691Z,54.80
2019-01-26T04:42:34.327Z,59.53
2019-01-26T04:45:02.007Z,57.90
2019-01-26T04:47:30.961Z,58.30
2019-01-26T04:49:59.076Z,59.23
2019-01-26T04:52:27.060Z,54.70
2019-01-26T04:54:54.698Z,57.07
2019-01-26T04:57:22.391Z,55.27
2019-01-26T04:59:50.024Z,53.93
2019-01-26T05:02:17.681Z,53.53
2019-01-26T05:04:45.302Z,50.00
2019-01-26T05:07:13.239Z,50.50
2019-01-26T05:09:40.871Z,50.17
2019-01-26T05:12:08.577Z,50.03
2019-01-26T05:14:36.189Z,47.90
2019-01-26T05:17:03.872Z,52.00
2019-01-26T05:19:31.480Z,50.00
2019-01-26T05:21:59.148Z,46.50
2019-01-26T05:24:26.777Z,53.83
2019-01-26T05:26:54.437Z,44.17
2019-01-26T05:29:22.093Z,46.60
2019-01-26T05:31:50.093Z,44.70
2019-01-26T05:34:18.917Z,43.33
2019-01-26T05:36:46.555Z,43.63
2019-01-26T05:39:14.473Z,41.30
2019-01-26T05:41:42.174Z,41.43
2019-01-26T05:44:09.824Z,40.93
2019-01-26T05:46:37.463Z,42.43
2019-01-26T05:49:05.106Z,41.90
2019-01-26T05:51:34.789Z,46.73
2019-01-26T05:54:03.179Z,44.33
2019-01-26T05:56:30.828Z,45.17
2019-01-26T05:58:58.456Z,46.10
2019-01-26T06:01:26.115Z,43.13
2019-01-26T06:03:53.780Z,45.07
2019-01-26T06:06:21.436Z,46.00
2019-01-26T06:08:50.705Z,50.50
2019-01-26T06:11:18.388Z,50.57
2019-01-26T06:13:46.475Z,51.00
2019-01-26T06:16:14.111Z,54.43
2019-01-26T06:18:41.798Z,54.80
2019-01-26T06:21:10.515Z,52.30
2019-01-26T06:23:38.206Z,53.57
2019-01-26T06:26:06.193Z,56.13
2019-01-26T06:28:33.877Z,62.85
2019-01-26T06:31:01.492Z,56.43
2019-01-26T06:33:29.478Z,51.87
2019-01-26T06:36:01.357Z,53.93
2019-01-26T06:38:29.031Z,50.97
2019-01-26T06:40:56.758Z,50.83
2019-01-26T06:43:24.427Z,53.07
2019-01-26T06:45:52.400Z,54.27
2019-01-26T06:48:20.372Z,58.13
2019-01-26T06:50:48.403Z,50.87
2019-01-26T06:53:17.298Z,76.10
2019-01-26T06:55:44.928Z,56.30
2019-01-26T06:58:12.979Z,58.10
2019-01-26T07:00:40.671Z,54.10
2019-01-26T07:03:08.705Z,52.97
2019-01-26T07:05:56.974Z,56.40
2019-01-26T07:08:25.224Z,52.80
2019-01-26T07:10:53.303Z,55.60
2019-01-26T07:13:22.091Z,52.57
2019-01-26T07:15:50.393Z,53.83
2019-01-26T07:18:18.002Z,52.60
2019-01-26T07:20:46.149Z,51.30
2019-01-26T07:23:14.175Z,47.43
2019-01-26T07:25:41.863Z,51.10
2019-01-26T07:28:09.594Z,50.13
2019-01-26T07:30:37.262Z,50.63
2019-01-26T07:33:06.000Z,51.67
2019-01-26T07:35:33.815Z,48.60
2019-01-26T07:38:01.454Z,49.83
2019-01-26T07:40:29.259Z,49.17
2019-01-26T07:42:56.978Z,50.40
2019-01-26T07:45:25.100Z,48.27
2019-01-26T07:47:52.794Z,49.43
2019-01-26T07:50:20.995Z,48.10
2019-01-26T07:52:48.941Z,48.17
2019-01-26T07:55:16.728Z,48.07
2019-01-26T07:57:44.608Z,51.70
2019-01-26T08:00:15.722Z,47.77
2019-01-26T08:02:43.405Z,45.53
2019-01-26T08:05:11.627Z,49.70
2019-01-26T08:07:40.409Z,49.47
2019-01-26T08:10:11.058Z,50.67
2019-01-26T08:12:38.700Z,45.40
2019-01-26T08:15:08.189Z,45.50
2019-01-26T08:17:35.825Z,43.70
2019-01-26T08:20:05.542Z,42.67
2019-01-26T08:22:33.152Z,46.13
2019-01-26T08:25:00.853Z,42.30
2019-01-26T08:27:28.568Z,43.40
2019-01-26T08:29:56.217Z,41.07
2019-01-26T08:32:24.326Z,38.87
2019-01-26T08:34:52.197Z,40.40
2019-01-26T08:37:20.049Z,38.60
2019-01-26T08:39:47.811Z,39.73
2019-01-26T08:42:16.693Z,40.03
2019-01-26T08:44:44.662Z,37.03
2019-01-26T08:47:12.518Z,37.47
2019-01-26T08:49:40.167Z,34.77
2019-01-26T08:52:07.969Z,37.90
2019-01-26T08:54:35.635Z,34.97
2019-01-26T08:57:03.396Z,35.80
2019-01-26T08:59:31.866Z,34.77
2019-01-26T09:02:25.442Z,35.57
2019-01-26T09:04:52.865Z,34.23
2019-01-26T09:07:20.536Z,34.00
2019-01-26T09:09:48.816Z,34.00
2019-01-26T09:12:16.480Z,36.10
2019-01-26T09:14:44.133Z,36.37
2019-01-26T09:17:12.101Z,37.93
2019-01-26T09:19:40.066Z,37.10
2019-01-26T09:22:08.640Z,37.27
2019-01-26T09:24:37.965Z,35.17
2019-01-26T09:27:05.635Z,33.40
2019-01-26T09:29:33.421Z,33.03
2019-01-26T09:32:01.075Z,30.83
2019-01-26T09:34:28.788Z,32.37
2019-01-26T09:36:56.438Z,29.40
2019-01-26T09:39:24.131Z,28.50
2019-01-26T09:41:51.770Z,25.23
2019-01-26T09:44:19.469Z,25.27
2019-01-26T09:46:47.524Z,21.63
2019-01-26T09:49:15.105Z,21.70
2019-01-26T09:51:42.743Z,16.50
2019-01-26T09:54:10.443Z,17.80
2019-01-26T09:56:38.056Z,14.77
2019-01-26T09:59:06.092Z,14.20
2019-01-26T10:01:33.750Z,12.23
2019-01-26T10:04:02.175Z,12.37
2019-01-26T10:06:29.845Z,11.97
2019-01-26T10:08:57.999Z,10.30
2019-01-26T10:11:26.619Z,10.53
2019-01-26T10:13:55.267Z,10.80
2019-01-26T10:16:24.166Z,9.13
2019-01-26T10:18:53.692Z,9.13
2019-01-26T10:21:21.750Z,8.57
2019-01-26T10:23:49.764Z,9.03
2019-01-26T10:26:18.149Z,8.63
2019-01-26T10:28:45.711Z,10.00
2019-01-26T10:31:13.792Z,9.07
2019-01-26T10:33:41.554Z,8.93
2019-01-26T10:36:22.381Z,9.90
2019-01-26T10:39:18.950Z,10.20
2019-01-26T10:42:06.620Z,11.33
2019-01-26T10:44:34.969Z,12.13
2019-01-26T10:47:03.120Z,11.53
2019-01-26T10:49:30.828Z,10.90
2019-01-26T10:51:58.809Z,10.10
2019-01-26T10:54:26.471Z,9.00
2019-01-26T10:56:54.219Z,8.47
2019-01-26T10:59:22.662Z,8.47
2019-01-26T11:01:50.978Z,7.00
2019-01-26T11:04:18.668Z,5.83
2019-01-26T11:06:46.631Z,6.07
2019-01-26T11:09:14.324Z,4.63
2019-01-26T11:11:41.935Z,3.93
2019-01-26T11:14:09.658Z,3.80
2019-01-26T11:16:37.287Z,3.80
2019-01-26T11:19:08.041Z,3.93
2019-01-26T11:21:35.124Z,4.20
2019-01-26T11:24:03.108Z,4.40
2019-01-26T11:26:30.761Z,3.83
2019-01-26T11:28:58.448Z,5.20
2019-01-26T11:31:26.405Z,4.00
2019-01-26T11:33:54.060Z,4.57
2019-01-26T11:36:21.762Z,4.73
2019-01-26T11:38:49.787Z,5.17
2019-01-26T11:41:17.445Z,5.33
2019-01-26T11:43:45.781Z,5.60
2019-01-26T11:46:31.572Z,4.40
2019-01-26T11:48:59.600Z,4.47
2019-01-26T11:51:52.484Z,4.43
2019-01-26T11:54:20.165Z,4.10
2019-01-26T11:57:14.181Z,4.10
2019-01-26T11:59:43.662Z,3.77
2019-01-26T12:02:39.712Z,3.97
2019-01-26T12:05:28.188Z,3.17
2019-01-26T12:07:55.804Z,3.50
2019-01-26T12:10:23.510Z,4.10
2019-01-26T12:12:51.138Z,3.23
2019-01-26T12:15:18.785Z,2.97
2019-01-26T12:17:46.443Z,3.53
2019-01-26T12:20:14.697Z,3.43
2019-01-26T12:22:42.296Z,3.57
2019-01-26T12:25:10.428Z,3.17
2019-01-26T12:27:38.862Z,2.80
2019-01-26T12:30:08.039Z,3.03
2019-01-26T12:32:36.534Z,2.80
2019-01-26T12:35:05.560Z,2.83
2019-01-26T12:37:33.290Z,3.20
2019-01-26T12:40:01.077Z,2.80
2019-01-26T12:42:28.750Z,3.63
2019-01-26T12:44:56.402Z,4.20
2019-01-26T12:47:24.040Z,5.17
2019-01-26T12:49:52.293Z,5.03
2019-01-26T12:52:19.965Z,3.90
2019-01-26T12:54:47.585Z,4.37
2019-01-26T12:57:15.240Z,4.90
2019-01-26T12:59:42.886Z,3.73
2019-01-26T13:02:10.856Z,3.70
2019-01-26T13:04:39.092Z,4.00
2019-01-26T13:07:06.751Z,3.30
2019-01-26T13:09:35.613Z,4.63
2019-01-26T13:12:04.494Z,4.30
2019-01-26T13:14:32.266Z,4.40
2019-01-26T13:17:01.087Z,5.00
2019-01-26T13:19:28.779Z,5.93
2019-01-26T13:21:56.534Z,5.07
2019-01-26T13:24:25.371Z,4.63
2019-01-26T13:26:53.043Z,5.27
2019-01-26T13:29:20.929Z,3.67
2019-01-26T13:31:48.796Z,4.27
2019-01-26T13:34:16.869Z,2.73
2019-01-26T13:36:44.914Z,2.83
2019-01-26T13:39:12.636Z,2.40
2019-01-26T13:41:41.410Z,3.17
2019-01-26T13:44:09.497Z,1.80
2019-01-26T13:46:37.450Z,2.33
2019-01-26T13:49:05.361Z,2.27
2019-01-26T13:51:34.078Z,2.57
2019-01-26T13:54:07.289Z,1.80
2019-01-26T13:56:35.452Z,2.40
2019-01-26T13:59:04.224Z,2.70
2019-01-26T14:01:31.940Z,1.67
2019-01-26T14:03:59.793Z,1.40
2019-01-26T14:06:28.845Z,1.80
2019-01-26T14:08:56.486Z,1.37
2019-01-26T14:11:24.160Z,1.47
2019-01-26T14:13:52.200Z,1.00
2019-01-26T14:16:20.252Z,1.00
2019-01-26T14:18:48.787Z,1.63
2019-01-26T14:21:17.600Z,1.40
2019-01-26T14:23:45.256Z,1.30
2019-01-26T14:26:13.405Z,2.37
2019-01-26T14:28:41.281Z,1.40
2019-01-26T14:31:09.137Z,2.23
2019-01-26T14:33:37.299Z,0.70
2019-01-26T14:36:04.970Z,1.97
2019-01-26T14:38:32.654Z,0.87
2019-01-26T14:41:00.330Z,0.90
2019-01-26T14:43:28.207Z,1.30
2019-01-26T14:45:56.641Z,0.87
2019-01-26T14:48:24.408Z,0.93
2019-01-26T14:50:52.054Z,2.23
2019-01-26T14:53:19.792Z,1.47
2019-01-26T14:55:47.724Z,2.00
2019-01-26T14:58:15.612Z,1.07
2019-01-26T15:00:43.534Z,1.93
2019-01-26T15:03:12.126Z,1.43
2019-01-26T15:05:39.900Z,1.73
2019-01-26T15:08:07.565Z,1.90
2019-01-26T15:10:35.614Z,2.20
2019-01-26T15:13:03.978Z,2.97
2019-01-26T15:15:31.960Z,3.13
2019-01-26T15:17:59.595Z,2.60
2019-01-26T15:20:30.120Z,2.70
2019-01-26T15:22:57.921Z,2.47
2019-01-26T15:25:25.984Z,2.00
2019-01-26T15:27:54.453Z,2.10
2019-01-26T15:30:25.321Z,2.00
2019-01-26T15:32:53.788Z,2.07
2019-01-26T15:35:21.423Z,1.73
2019-01-26T15:37:49.136Z,1.47
2019-01-26T15:40:17.187Z,1.20
2019-01-26T15:42:45.167Z,1.47
2019-01-26T15:45:15.872Z,1.50
2019-01-26T15:47:43.620Z,1.50
2019-01-26T15:50:13.181Z,1.00
2019-01-26T15:52:40.975Z,1.30
2019-01-26T15:55:11.818Z,2.10
2019-01-26T15:57:39.483Z,2.00
2019-01-26T16:00:19.451Z,3.07
2019-01-26T16:02:47.198Z,1.40
2019-01-26T16:05:15.331Z,1.90
2019-01-26T16:07:43.778Z,1.30
2019-01-26T16:10:13.380Z,1.43
2019-01-26T16:12:41.008Z,1.43
2019-01-26T16:15:11.152Z,2.93
2019-01-26T16:17:38.831Z,3.20
2019-01-26T16:20:08.391Z,2.33
2019-01-26T16:22:36.022Z,2.43
2019-01-26T16:25:04.788Z,2.23
2019-01-26T16:27:33.728Z,2.03
2019-01-26T16:30:01.797Z,3.03
2019-01-26T16:32:29.693Z,3.47
2019-01-26T16:34:57.873Z,3.87
2019-01-26T16:37:25.851Z,4.43
2019-01-26T16:40:06.820Z,5.27
2019-01-26T16:42:34.647Z,6.70
2019-01-26T16:45:02.691Z,8.03
2019-01-26T16:47:30.495Z,9.63
2019-01-26T16:49:58.166Z,10.63
2019-01-26T16:52:26.266Z,12.90
2019-01-26T16:55:15.282Z,13.73
2019-01-26T16:57:42.928Z,13.33
2019-01-26T17:00:13.959Z,13.23
2019-01-26T17:02:42.160Z,12.70
2019-01-26T17:05:10.242Z,12.27
2019-01-26T17:07:39.802Z,11.57
2019-01-26T17:10:09.401Z,11.60
2019-01-26T17:12:37.342Z,12.37
2019-01-26T17:15:06.177Z,12.97
2019-01-26T17:17:33.883Z,12.37
2019-01-26T17:20:01.539Z,13.33
2019-01-26T17:22:29.224Z,12.97
2019-01-26T17:24:56.889Z,16.77
2019-01-26T17:27:24.626Z,16.07
2019-01-26T17:29:52.411Z,18.93
2019-01-26T17:32:23.729Z,20.07
2019-01-26T17:34:51.391Z,20.73
2019-01-26T17:37:19.043Z,23.40
2019-01-26T17:39:48.999Z,22.77
2019-01-26T17:42:16.877Z,24.27
2019-01-26T17:44:44.557Z,24.17
2019-01-26T17:47:12.284Z,22.87
2019-01-26T17:49:39.959Z,23.83
2019-01-26T17:52:07.632Z,22.77
2019-01-26T17:54:35.618Z,20.97
2019-01-26T17:57:03.304Z,22.27
2019-01-26T17:59:34.134Z,21.57
2019-01-26T18:02:01.796Z,20.43
2019-01-26T18:04:29.528Z,20.87
2019-01-26T18:06:57.270Z,19.77
2019-01-26T18:09:24.918Z,19.37
2019-01-26T18:11:52.889Z,18.03
2019-01-26T18:14:20.888Z,17.97
2019-01-26T18:16:48.994Z,17.40
2019-01-26T18:19:18.146Z,18.33
2019-01-26T18:21:46.237Z,18.47
2019-01-26T18:24:14.203Z,17.80
2019-01-26T18:26:42.010Z,17.57
2019-01-26T18:29:09.861Z,18.43
2019-01-26T18:31:37.758Z,18.00
2019-01-26T18:34:05.387Z,18.43
2019-01-26T18:36:33.836Z,19.43
2019-01-26T18:39:02.133Z,19.60
2019-01-26T18:41:29.782Z,19.23
2019-01-26T18:43:57.443Z,19.00
2019-01-26T18:46:26.185Z,16.73
2019-01-26T18:48:54.239Z,18.13
2019-01-26T18:51:22.225Z,19.48
2019-01-26T18:53:50.050Z,13.87
2019-01-26T18:56:17.703Z,15.60
2019-01-26T18:58:45.725Z,14.20
2019-01-26T19:01:13.432Z,14.67
2019-01-26T19:03:47.256Z,15.63
2019-01-26T19:06:14.943Z,13.73
2019-01-26T19:08:42.633Z,13.53
2019-01-26T19:11:10.343Z,13.10
2019-01-26T19:13:38.039Z,12.37
2019-01-26T19:16:06.100Z,12.77
2019-01-26T19:18:34.451Z,13.07
2019-01-26T19:21:06.958Z,12.10
2019-01-26T19:23:34.661Z,13.23
2019-01-26T19:26:02.382Z,9.13
2019-01-26T19:28:30.413Z,11.17
2019-01-26T19:30:58.171Z,8.83
2019-01-26T19:33:26.334Z,7.17
2019-01-26T19:35:55.228Z,7.73
2019-01-26T19:38:24.081Z,6.37
2019-01-26T19:40:51.771Z,7.47
2019-01-26T19:43:19.427Z,8.17
2019-01-26T19:45:48.265Z,9.47
2019-01-26T19:48:16.502Z,8.90
2019-01-26T19:50:44.126Z,10.07
2019-01-26T19:53:11.814Z,10.30
2019-01-26T19:55:39.467Z,8.50
2019-01-26T19:58:07.176Z,7.70
2019-01-26T20:00:35.220Z,7.60
2019-01-26T20:03:03.033Z,7.43
2019-01-26T20:05:30.716Z,7.00
2019-01-26T20:07:58.702Z,5.50
2019-01-26T20:10:26.358Z,5.60
2019-01-26T20:12:54.092Z,5.10
2019-01-26T20:15:22.091Z,5.20
2019-01-26T20:17:49.921Z,3.10
2019-01-26T20:20:23.194Z,3.40
2019-01-26T20:22:50.817Z,3.57
2019-01-26T20:25:18.533Z,3.13
2019-01-26T20:27:46.542Z,3.23
2019-01-26T20:30:18.249Z,2.90
2019-01-26T20:32:46.414Z,2.00
2019-01-26T20:35:14.107Z,2.00
2019-01-26T20:37:41.767Z,2.43
2019-01-26T20:40:11.841Z,2.70
2019-01-26T20:42:40.044Z,2.00
2019-01-26T20:45:10.758Z,2.20
2019-01-26T20:47:38.451Z,1.97
2019-01-26T20:50:07.297Z,2.57
2019-01-26T20:52:34.962Z,2.33
2019-01-26T20:55:03.271Z,2.07
2019-01-26T20:57:31.261Z,1.90
2019-01-26T20:59:58.964Z,2.50
2019-01-26T21:02:26.639Z,2.10
2019-01-26T21:04:55.168Z,2.20
2019-01-26T21:07:23.225Z,2.17
2019-01-26T21:09:51.200Z,2.60
2019-01-26T21:12:19.169Z,2.30
2019-01-26T21:14:46.931Z,2.10
2019-01-26T21:17:14.693Z,2.27
2019-01-26T21:19:42.362Z,1.93
2019-01-26T21:22:09.975Z,2.70
2019-01-26T21:24:37.669Z,2.83
2019-01-26T21:27:05.313Z,3.90
2019-01-26T21:29:33.312Z,4.03
2019-01-26T21:32:00.922Z,4.63
2019-01-26T21:34:28.626Z,4.47
2019-01-26T21:36:56.257Z,5.20
2019-01-26T21:39:23.963Z,4.50
2019-01-26T21:41:51.684Z,4.87
2019-01-26T21:44:19.433Z,4.67
2019-01-26T21:46:47.153Z,4.70
2019-01-26T21:49:14.803Z,5.10
2019-01-26T21:51:42.535Z,4.07
2019-01-26T21:54:10.196Z,4.37
2019-01-26T21:56:37.851Z,4.53
2019-01-26T21:59:05.526Z,6.00
2019-01-26T22:01:33.154Z,5.43
2019-01-26T22:04:01.159Z,4.80
2019-01-26T22:06:28.803Z,4.70
2019-01-26T22:08:56.431Z,4.47
2019-01-26T22:11:24.109Z,3.47
2019-01-26T22:13:51.777Z,2.70
2019-01-26T22:16:20.849Z,2.63
2019-01-26T22:18:48.979Z,2.43
2019-01-26T22:21:16.730Z,1.97
2019-01-26T22:23:44.813Z,1.00
2019-01-26T22:26:12.636Z,1.80
2019-01-26T22:28:40.767Z,2.67
2019-01-26T22:31:08.434Z,2.07
2019-01-26T22:33:36.182Z,1.43
2019-01-26T22:36:03.875Z,1.50
2019-01-26T22:38:31.915Z,1.73
2019-01-26T22:41:00.023Z,1.80
2019-01-26T22:43:27.728Z,1.90
2019-01-26T22:45:55.450Z,2.63
2019-01-26T22:48:23.260Z,2.30
2019-01-26T22:50:51.009Z,2.67
2019-01-26T22:53:19.419Z,2.60
2019-01-26T22:55:47.146Z,3.20
2019-01-26T22:58:14.968Z,2.70
2019-01-26T23:01:17.393Z,5.40
2019-01-26T23:04:30.413Z,3.07
2019-01-26T23:07:37.316Z,2.10
2019-01-26T23:10:09.368Z,1.93
2019-01-26T23:13:04.637Z,1.50
2019-01-26T23:16:10.711Z,1.83
2019-01-26T23:18:53.856Z,1.43
2019-01-26T23:21:40.032Z,1.33
2019-01-26T23:24:39.666Z,1.50
2019-01-26T23:27:26.777Z,1.30
2019-01-26T23:30:13.870Z,1.33
2019-01-26T23:32:41.826Z,1.10
2019-01-26T23:35:09.411Z,1.20
2019-01-26T23:37:37.043Z,0.90
2019-01-26T23:40:05.077Z,1.23
2019-01-26T23:42:32.732Z,1.13
2019-01-26T23:45:00.712Z,1.23
2019-01-26T23:47:28.385Z,1.30
2019-01-26T23:49:56.424Z,1.50
2019-01-26T23:52:24.635Z,1.70
2019-01-26T23:54:52.346Z,1.53
2019-01-26T23:57:20.246Z,1.53
